Time;durP1;ratioP1;P1;durP2;ratioP2;P2;SDS_P1;SDS_P2;PMS_P1;PMS_P2;Temp;Humidity;BMP_temperature;BMP_pressure;BME280_temperature;BME280_humidity;BME280_pressure;Samples;Min_cycle;Max_cycle;Signal;HPM_P1;HPM_P2
2022/05/31 00:02:23;;;;;;;5.43;4.80;;;;;;;11.07;100.00;99892.06;5068915;28;20036;-83
2022/05/31 00:04:49;;;;;;;7.10;5.07;;;;;;;11.00;100.00;99893.03;5069197;28;20066;-83
2022/05/31 00:07:15;;;;;;;7.00;5.28;;;;;;;10.99;100.00;99905.38;5069143;28;20076;-82
2022/05/31 00:09:40;;;;;;;5.57;5.00;;;;;;;10.96;100.00;99897.94;5067526;28;20467;-83
2022/05/31 00:12:07;;;;;;;7.05;5.72;;;;;;;10.97;100.00;99912.59;5068455;28;20048;-83
2022/05/31 00:14:32;;;;;;;5.47;4.82;;;;;;;10.93;100.00;99915.47;5059859;28;20103;-83
2022/05/31 00:17:00;;;;;;;6.38;5.78;;;;;;;10.89;100.00;99919.56;5050911;28;20040;-83
2022/05/31 00:19:26;;;;;;;5.80;5.20;;;;;;;10.83;100.00;99905.47;5035551;28;20058;-83
2022/05/31 00:22:10;;;;;;;6.22;5.40;;;;;;;10.85;100.00;99914.13;5065625;28;20044;-83
2022/05/31 00:24:39;;;;;;;6.97;5.22;;;;;;;10.86;100.00;99912.91;5050449;28;20048;-83
2022/05/31 00:27:08;;;;;;;6.57;5.90;;;;;;;10.75;100.00;99896.59;5067446;28;20037;-83
2022/05/31 00:29:34;;;;;;;7.70;6.28;;;;;;;10.75;100.00;99910.47;5048508;28;20119;-83
2022/05/31 00:32:01;;;;;;;7.38;6.30;;;;;;;10.78;100.00;99911.56;5069699;28;20139;-83
2022/05/31 00:34:27;;;;;;;7.20;6.22;;;;;;;10.74;100.00;99913.66;5050099;28;20040;-83
2022/05/31 00:36:53;;;;;;;8.27;6.10;;;;;;;10.80;100.00;99920.22;5050583;28;20389;-82
2022/05/31 00:39:18;;;;;;;6.68;5.90;;;;;;;10.67;100.00;99911.13;5068548;28;20040;-83
2022/05/31 00:42:10;;;;;;;6.50;5.82;;;;;;;10.66;100.00;99913.09;5041569;28;20109;-83
2022/05/31 00:44:36;;;;;;;6.65;5.93;;;;;;;10.56;100.00;99913.41;5067200;28;20496;-83
2022/05/31 00:47:02;;;;;;;7.45;5.57;;;;;;;10.59;100.00;99929.19;5031893;28;20447;-82
2022/05/31 00:49:37;;;;;;;5.68;4.97;;;;;;;10.56;100.00;99913.41;5068934;28;20431;-83
2022/05/31 00:52:13;;;;;;;6.38;5.50;;;;;;;10.50;100.00;99929.03;5032702;28;20028;-83
2022/05/31 00:54:46;;;;;;;6.47;5.28;;;;;;;10.48;100.00;99917.59;5049964;28;20099;-83
2022/05/31 00:57:12;;;;;;;4.95;4.22;;;;;;;10.50;100.00;99917.94;5067141;28;20106;-83
2022/05/31 00:59:45;;;;;;;4.63;4.13;;;;;;;10.46;100.00;99931.13;5068712;28;20077;-82
2022/05/31 01:02:11;;;;;;;7.90;4.70;;;;;;;10.39;100.00;99926.56;5304303;22;20057;-83
2022/05/31 01:04:41;;;;;;;5.07;4.40;;;;;;;10.32;100.00;99920.41;4971803;28;20075;-84
2022/05/31 01:07:07;;;;;;;4.90;4.40;;;;;;;10.24;100.00;99920.63;4971333;28;20181;-84
2022/05/31 01:09:33;;;;;;;4.95;4.35;;;;;;;10.19;100.00;99912.81;4962169;28;20058;-84
2022/05/31 01:12:17;;;;;;;5.70;4.53;;;;;;;10.19;100.00;99921.13;4975423;28;20526;-84
2022/05/31 01:15:01;;;;;;;6.07;4.70;;;;;;;10.16;100.00;99912.94;4977103;28;20134;-84
2022/05/31 01:17:46;;;;;;;6.78;4.82;;;;;;;10.10;100.00;99920.97;4988592;28;20093;-84
2022/05/31 01:20:23;;;;;;;5.88;4.85;;;;;;;10.10;100.00;99923.75;4991102;28;20047;-84
2022/05/31 01:23:15;;;;;;;6.78;5.35;;;;;;;10.09;100.00;99938.81;4992703;28;20046;-84
2022/05/31 01:26:09;;;;;;;8.05;5.28;;;;;;;10.07;100.00;99938.47;4992523;28;20042;-84
2022/05/31 01:28:51;;;;;;;6.30;5.70;;;;;;;10.06;100.00;99936.94;4960342;28;20038;-84
2022/05/31 01:31:21;;;;;;;6.40;5.28;;;;;;;10.01;100.00;99934.69;4972051;28;20038;-84
2022/05/31 01:34:03;;;;;;;8.23;5.55;;;;;;;9.90;100.00;99939.72;4965737;28;20038;-85
2022/05/31 01:36:36;;;;;;;5.82;5.22;;;;;;;9.88;100.00;99936.59;4974851;28;20096;-85
2022/05/31 01:39:10;;;;;;;6.68;4.80;;;;;;;9.78;100.00;99934.88;4973826;28;20082;-84
2022/05/31 01:41:48;;;;;;;5.15;4.65;;;;;;;9.71;100.00;99915.66;4991523;28;20518;-84
2022/05/31 01:44:17;;;;;;;7.50;5.03;;;;;;;9.75;100.00;99924.66;4956436;28;20035;-84
2022/05/31 01:46:43;;;;;;;5.68;4.53;;;;;;;9.76;100.00;99928.97;4958917;28;20046;-84
2022/05/31 01:49:12;;;;;;;7.57;4.82;;;;;;;9.74;100.00;99921.13;4990566;28;20057;-84
2022/05/31 01:51:40;;;;;;;6.32;4.68;;;;;;;9.76;100.00;99931.75;4991412;28;20030;-84
2022/05/31 01:54:06;;;;;;;6.00;4.45;;;;;;;9.68;100.00;99919.28;4991016;28;20054;-84
2022/05/31 01:56:35;;;;;;;5.18;4.53;;;;;;;9.71;100.00;99926.72;4959081;28;20073;-84
2022/05/31 01:59:01;;;;;;;5.35;4.60;;;;;;;9.67;100.00;99943.44;4974258;28;20050;-84
2022/05/31 02:01:29;;;;;;;5.00;4.50;;;;;;;9.70;100.00;99941.81;4971625;28;20125;-84
2022/05/31 02:03:55;;;;;;;5.10;4.60;;;;;;;9.65;100.00;99939.56;4982573;28;20096;-84
2022/05/31 02:06:27;;;;;;;5.90;4.38;;;;;;;9.66;100.00;99941.91;4991339;28;20441;-84
2022/05/31 02:08:54;;;;;;;6.20;4.57;;;;;;;9.60;100.00;99940.06;5009538;28;20034;-84
2022/05/31 02:11:20;;;;;;;5.90;4.50;;;;;;;9.58;100.00;99934.19;5001039;28;20476;-84
2022/05/31 02:13:48;;;;;;;5.45;4.00;;;;;;;9.55;100.00;99918.44;4999288;28;20062;-84
2022/05/31 02:16:19;;;;;;;4.85;4.15;;;;;;;9.59;100.00;99941.28;5009080;28;20064;-84
2022/05/31 02:19:23;;;;;;;4.70;4.20;;;;;;;9.49;100.00;99920.16;4988702;28;20101;-84
2022/05/31 02:21:58;;;;;;;5.20;4.20;;;;;;;9.52;100.00;99930.38;4983740;28;20152;-84
2022/05/31 02:24:24;;;;;;;4.47;4.07;;;;;;;9.56;100.00;99942.16;5003753;28;20046;-84
2022/05/31 02:26:51;;;;;;;5.35;4.47;;;;;;;9.55;100.00;99935.81;5001444;28;20418;-84
2022/05/31 02:29:27;;;;;;;7.22;5.28;;;;;;;9.54;100.00;99933.50;4965016;28;20049;-84
2022/05/31 02:31:53;;;;;;;5.97;5.15;;;;;;;9.62;100.00;99940.44;5005252;28;20074;-84
2022/05/31 02:34:26;;;;;;;6.78;5.40;;;;;;;9.58;100.00;99942.50;4996942;28;20153;-84
2022/05/31 02:36:53;;;;;;;7.85;5.55;;;;;;;9.49;100.00;99943.09;4994881;28;20038;-84
2022/05/31 02:39:19;;;;;;;5.72;5.03;;;;;;;9.40;100.00;99944.91;4993811;28;20041;-84
2022/05/31 02:41:47;;;;;;;6.32;5.22;;;;;;;9.38;100.00;99953.66;4976064;28;20130;-84
2022/05/31 02:44:13;;;;;;;6.10;5.18;;;;;;;9.22;100.00;99935.00;4990817;28;20459;-84
2022/05/31 02:46:41;;;;;;;5.90;5.22;;;;;;;9.26;100.00;99951.56;5001744;28;20518;-84
2022/05/31 02:49:07;;;;;;;5.45;4.88;;;;;;;9.21;100.00;99952.84;5001757;28;20045;-84
2022/05/31 02:51:38;;;;;;;7.43;5.40;;;;;;;9.29;100.00;99950.69;4996329;28;20544;-84
2022/05/31 02:54:04;;;;;;;6.35;4.72;;;;;;;9.21;100.00;99939.00;5000461;28;20034;-84
2022/05/31 02:56:50;;;;;;;5.32;4.80;;;;;;;9.15;100.00;99929.66;4996270;28;20190;-84
2022/05/31 02:59:47;;;;;;;6.07;4.45;;;;;;;9.21;100.00;99946.53;4970032;28;20034;-84
2022/05/31 03:02:25;;;;;;;5.55;4.25;;;;;;;9.09;100.00;99934.16;5003449;28;20053;-84
2022/05/31 03:05:23;;;;;;;4.70;3.97;;;;;;;9.10;100.00;99941.22;4952372;28;20080;-84
2022/05/31 03:08:18;;;;;;;4.15;3.75;;;;;;;9.12;100.00;99952.66;4957763;28;20043;-84
2022/05/31 03:11:03;;;;;;;4.65;4.03;;;;;;;9.09;100.00;99945.22;4986663;28;20054;-84
2022/05/31 03:13:31;;;;;;;5.10;4.60;;;;;;;9.09;100.00;99952.72;4982118;28;20510;-84
2022/05/31 03:15:59;;;;;;;7.63;5.75;;;;;;;9.07;100.00;99955.13;4982176;28;20141;-84
2022/05/31 03:18:27;;;;;;;6.05;5.45;;;;;;;9.06;100.00;99959.88;4991321;28;20385;-84
2022/05/31 03:20:56;;;;;;;7.70;5.88;;;;;;;9.01;100.00;99959.63;5003925;28;20135;-84
2022/05/31 03:23:27;;;;;;;7.25;6.00;;;;;;;8.97;100.00;99954.16;4986249;28;20057;-84
2022/05/31 03:25:53;;;;;;;7.18;5.90;;;;;;;8.92;100.00;99948.34;5003258;28;20050;-84
2022/05/31 03:28:21;;;;;;;10.55;5.68;;;;;;;8.88;100.00;99967.78;4980221;28;20041;-84
2022/05/31 03:30:47;;;;;;;14.15;6.82;;;;;;;8.83;100.00;99963.53;4975974;28;20607;-84
2022/05/31 03:33:13;;;;;;;15.18;8.35;;;;;;;8.84;100.00;99958.78;5002718;28;20046;-84
2022/05/31 03:35:38;;;;;;;20.00;8.73;;;;;;;8.83;100.00;99954.47;4988755;28;20101;-84
2022/05/31 03:38:12;;;;;;;14.45;9.35;;;;;;;8.92;100.00;99960.19;4994276;28;20566;-84
2022/05/31 03:40:56;;;;;;;12.35;8.60;;;;;;;8.96;100.00;99960.91;4991621;28;20039;-84
2022/05/31 03:43:27;;;;;;;9.73;8.02;;;;;;;9.07;100.00;99964.22;4984965;28;20419;-84
2022/05/31 03:46:14;;;;;;;8.35;7.50;;;;;;;9.05;100.00;99950.03;4967833;28;20057;-84
2022/05/31 03:48:59;;;;;;;7.30;5.50;;;;;;;9.10;100.00;99960.59;5002138;28;20108;-83
2022/05/31 03:51:28;;;;;;;6.05;4.88;;;;;;;9.13;100.00;99951.44;4977554;28;20049;-83
2022/05/31 03:53:58;;;;;;;6.20;5.18;;;;;;;9.12;100.00;99940.78;4981824;28;20038;-82
2022/05/31 03:56:44;;;;;;;8.10;5.97;;;;;;;9.11;100.00;99955.84;4988510;28;20665;-83
2022/05/31 03:59:10;;;;;;;11.38;6.72;;;;;;;9.12;100.00;99952.66;4975038;28;20061;-83
2022/05/31 04:01:35;;;;;;;15.73;7.53;;;;;;;9.11;100.00;99945.56;5000173;28;20034;-83
2022/05/31 04:04:03;;;;;;;19.75;7.80;;;;;;;9.17;100.00;99954.91;5001312;28;20038;-83
2022/05/31 04:06:30;;;;;;;25.90;7.55;;;;;;;9.21;100.00;99949.28;4972764;28;20135;-83
2022/05/31 04:08:56;;;;;;;38.85;8.32;;;;;;;9.27;100.00;99956.66;4973592;28;20073;-83
2022/05/31 04:11:24;;;;;;;83.38;8.85;;;;;;;9.13;100.00;99959.75;4972113;28;20488;-83
2022/05/31 04:13:50;;;;;;;66.47;9.55;;;;;;;9.11;100.00;99956.63;4973114;28;20495;-84
2022/05/31 04:16:34;;;;;;;20.25;9.18;;;;;;;9.28;100.00;99963.75;4975499;28;20065;-83
2022/05/31 04:19:03;;;;;;;59.88;10.30;;;;;;;9.34;100.00;99959.25;4971990;28;20575;-83
2022/05/31 04:21:29;;;;;;;11.48;8.45;;;;;;;9.43;100.00;99944.81;4971700;28;20073;-83
2022/05/31 04:24:08;;;;;;;27.73;8.48;;;;;;;9.50;100.00;99943.88;4987138;28;20621;-84
2022/05/31 04:26:38;;;;;;;9.82;8.60;;;;;;;9.62;100.00;99952.28;4988851;28;20086;-84
2022/05/31 04:29:36;;;;;;;67.32;9.85;;;;;;;9.69;100.00;99956.88;4956539;28;20050;-84
2022/05/31 04:32:11;;;;;;;12.63;8.73;;;;;;;9.75;100.00;99955.13;4989108;28;20105;-84
2022/05/31 04:34:57;;;;;;;102.68;11.77;;;;;;;9.83;100.00;99950.97;4968618;28;20050;-84
2022/05/31 04:37:24;;;;;;;30.90;9.85;;;;;;;9.93;100.00;99949.94;4971814;28;20404;-84
2022/05/31 04:40:25;;;;;;;24.75;10.32;;;;;;;10.07;100.00;99949.53;4974360;28;20042;-83
2022/05/31 04:43:09;;;;;;;17.23;10.20;;;;;;;10.23;100.00;99952.31;4984457;28;20113;-84
2022/05/31 04:45:50;;;;;;;21.15;9.90;;;;;;;10.32;100.00;99948.13;4986885;28;20133;-81
2022/05/31 04:48:31;;;;;;;30.80;9.60;;;;;;;10.43;100.00;99963.28;4974662;28;20047;-82
2022/05/31 04:50:57;;;;;;;25.10;9.90;;;;;;;10.53;100.00;99959.44;4975393;28;20038;-81
2022/05/31 04:53:27;;;;;;;34.83;10.30;;;;;;;10.57;100.00;99948.25;5006141;28;20064;-81
2022/05/31 04:56:17;;;;;;;106.15;10.55;;;;;;;10.45;100.00;99951.75;4992643;28;20105;-81
2022/05/31 04:58:43;;;;;;;27.77;10.10;;;;;;;10.48;100.00;99951.66;4974756;28;20054;-82
2022/05/31 05:01:09;;;;;;;34.20;10.55;;;;;;;10.61;100.00;99960.00;4974872;28;20042;-82
2022/05/31 05:03:41;;;;;;;41.15;10.48;;;;;;;10.66;100.00;99963.03;4987766;28;20069;-82
2022/05/31 05:06:09;;;;;;;21.00;10.70;;;;;;;10.77;100.00;99965.50;4980144;28;20388;-81
2022/05/31 05:08:35;;;;;;;30.10;9.70;;;;;;;10.79;100.00;99960.31;4966153;28;20538;-82
2022/05/31 05:11:03;;;;;;;76.10;11.00;;;;;;;10.75;100.00;99965.19;4976929;28;20046;-82
2022/05/31 05:13:40;;;;;;;133.68;11.45;;;;;;;10.68;100.00;99965.34;4978448;28;20042;-82
2022/05/31 05:16:20;;;;;;;11.45;9.30;;;;;;;10.86;100.00;99973.19;5000518;28;20536;-82
2022/05/31 05:18:51;;;;;;;44.22;9.88;;;;;;;10.96;100.00;99970.09;4984185;28;20125;-82
2022/05/31 05:21:17;;;;;;;25.65;9.60;;;;;;;11.04;100.00;99962.34;4982407;28;20138;-82
2022/05/31 05:23:43;;;;;;;38.50;10.15;;;;;;;11.10;100.00;99958.56;4979567;28;20031;-82
2022/05/31 05:26:13;;;;;;;17.92;10.38;;;;;;;11.13;100.00;99952.13;4989696;28;20038;-82
2022/05/31 05:31:40;;;;;;;19.98;10.05;;;;;;;11.48;100.00;99955.81;4991768;28;20038;-82
2022/05/31 05:34:54;;;;;;;14.07;10.13;;;;;;;11.64;100.00;99966.03;4952471;29;20212;-82
2022/05/31 05:37:21;;;;;;;13.00;9.25;;;;;;;11.75;100.00;99958.16;4936239;29;20039;-82
2022/05/31 05:39:47;;;;;;;20.45;9.75;;;;;;;11.88;100.00;99960.91;4950045;28;20086;-82
2022/05/31 05:42:33;;;;;;;12.40;9.60;;;;;;;11.98;100.00;99968.88;5004015;28;20053;-82
2022/05/31 05:45:33;;;;;;;10.73;9.63;;;;;;;12.15;100.00;99972.28;5000636;28;20075;-82
2022/05/31 05:47:59;;;;;;;11.65;9.48;;;;;;;12.22;100.00;99974.03;5003259;28;20108;-82
2022/05/31 05:50:25;;;;;;;12.32;8.55;;;;;;;12.28;100.00;99969.47;4987280;28;20257;-82
2022/05/31 05:52:55;;;;;;;16.55;8.48;;;;;;;12.27;100.00;99981.81;5001063;28;20257;-82
2022/05/31 05:55:40;;;;;;;12.63;8.52;;;;;;;12.34;100.00;99971.22;4999966;28;20049;-82
2022/05/31 05:58:24;;;;;;;9.82;8.70;;;;;;;12.33;100.00;99958.56;4985094;28;20076;-82
2022/05/31 06:01:30;;;;;;;9.05;8.15;;;;;;;12.51;100.00;99980.19;4950575;28;20039;-82
2022/05/31 06:04:13;;;;;;;9.15;8.25;;;;;;;12.54;100.00;99980.06;4981657;28;20037;-82
2022/05/31 06:06:42;;;;;;;8.35;7.55;;;;;;;12.70;100.00;99981.13;4988095;28;20034;-82
2022/05/31 06:09:18;;;;;;;9.88;8.88;;;;;;;12.79;100.00;99987.50;4988656;28;20491;-82
2022/05/31 06:11:47;;;;;;;10.88;8.40;;;;;;;12.95;100.00;99995.66;4991939;28;20427;-82
2022/05/31 06:14:21;;;;;;;9.10;8.20;;;;;;;13.23;100.00;100001.41;4976604;28;20517;-82
2022/05/31 06:16:50;;;;;;;8.63;7.72;;;;;;;13.29;100.00;99996.81;4985801;28;20042;-82
2022/05/31 06:19:29;;;;;;;8.63;7.72;;;;;;;13.22;100.00;99983.97;4976462;28;20502;-82
2022/05/31 06:21:55;;;;;;;8.93;8.02;;;;;;;13.53;100.00;100000.66;5003617;28;20431;-83
2022/05/31 06:24:32;;;;;;;8.60;7.70;;;;;;;13.66;100.00;100000.56;5005433;28;20046;-82
2022/05/31 06:27:09;;;;;;;8.40;7.60;;;;;;;13.88;100.00;100010.38;4993275;28;20100;-82
2022/05/31 06:29:35;;;;;;;7.60;6.85;;;;;;;14.03;100.00;100007.81;4988023;28;20128;-82
2022/05/31 06:32:00;;;;;;;9.02;6.93;;;;;;;14.30;100.00;100009.84;4976301;28;20049;-82
2022/05/31 06:34:37;;;;;;;10.55;7.03;;;;;;;14.67;100.00;100019.84;4997190;28;20439;-82
2022/05/31 06:37:24;;;;;;;9.13;5.63;;;;;;;14.91;100.00;100037.53;4955176;28;20030;-82
2022/05/31 06:39:50;;;;;;;7.88;6.13;;;;;;;15.18;99.64;100033.91;4965873;28;20529;-82
2022/05/31 06:42:31;;;;;;;6.90;5.22;;;;;;;15.37;100.00;100040.22;4975827;28;20041;-83
2022/05/31 06:45:16;;;;;;;6.57;5.50;;;;;;;15.55;97.88;100045.81;5001606;28;20057;-82
2022/05/31 06:48:01;;;;;;;6.75;5.35;;;;;;;15.59;97.56;100035.22;5003758;28;20510;-83
2022/05/31 06:50:45;;;;;;;5.63;5.10;;;;;;;15.98;96.72;100044.53;4992904;28;20490;-83
2022/05/31 06:59:43;;;;;;;4.72;3.60;;;;;;;16.38;86.99;100027.34;5003589;28;20038;-82
2022/05/31 07:02:10;;;;;;;5.25;4.05;;;;;;;16.64;87.27;100019.25;4985305;28;20406;-83
2022/05/31 07:04:37;;;;;;;4.70;3.80;;;;;;;16.53;85.62;100011.38;4991502;28;20042;-82
2022/05/31 07:07:03;;;;;;;6.00;4.32;;;;;;;16.68;85.92;100014.25;4990790;28;20049;-83
2022/05/31 07:09:48;;;;;;;6.15;4.28;;;;;;;16.83;85.58;100017.84;4990483;28;20112;-82
2022/05/31 07:12:22;;;;;;;7.03;4.10;;;;;;;17.05;84.66;100017.50;4973915;28;20066;-83
2022/05/31 07:15:24;;;;;;;5.63;4.05;;;;;;;17.40;82.13;100023.19;4957639;28;20050;-83
2022/05/31 07:18:15;;;;;;;5.35;4.28;;;;;;;17.27;82.17;100029.09;4990446;28;20047;-83
2022/05/31 07:20:44;;;;;;;4.45;4.05;;;;;;;17.49;82.50;100029.50;4973701;28;20050;-82
2022/05/31 07:23:11;;;;;;;5.43;4.22;;;;;;;17.21;80.97;100034.63;4958187;28;20038;-83
2022/05/31 07:25:44;;;;;;;4.90;4.40;;;;;;;17.22;83.82;100033.38;4958963;28;20046;-83
2022/05/31 07:28:09;;;;;;;5.38;3.90;;;;;;;17.62;81.19;100032.81;4973834;28;20042;-83
2022/05/31 07:30:37;;;;;;;4.53;4.13;;;;;;;17.78;81.43;100027.94;4989380;28;20238;-83
2022/05/31 07:33:08;;;;;;;5.07;4.07;;;;;;;18.09;80.69;100036.56;4990160;28;20103;-83
2022/05/31 07:35:34;;;;;;;4.53;4.03;;;;;;;18.56;78.76;100036.19;4973518;28;20467;-83
2022/05/31 07:38:01;;;;;;;4.90;4.10;;;;;;;18.81;74.44;100028.31;4973871;28;20460;-80
2022/05/31 07:40:30;;;;;;;4.93;3.92;;;;;;;18.73;75.88;100015.97;4972661;28;20050;-80
2022/05/31 07:42:55;;;;;;;4.13;3.47;;;;;;;18.71;75.55;100024.13;4974220;28;20411;-80
2022/05/31 07:45:25;;;;;;;5.43;4.00;;;;;;;18.53;75.77;100030.78;4971108;28;20069;-81
2022/05/31 07:47:51;;;;;;;5.30;4.35;;;;;;;18.62;75.24;100033.47;4973719;28;20500;-80
2022/05/31 07:50:17;;;;;;;5.90;3.80;;;;;;;18.98;75.80;100032.09;4973129;28;20126;-80
2022/05/31 07:52:59;;;;;;;4.25;3.47;;;;;;;18.80;73.20;100026.78;4973244;28;20136;-81
2022/05/31 07:56:07;;;;;;;5.70;3.10;;;;;;;18.52;72.42;100032.06;4990036;28;20444;-80
2022/05/31 07:58:53;;;;;;;4.93;3.20;;;;;;;18.91;73.67;100022.06;4962809;28;20129;-80
2022/05/31 08:01:53;;;;;;;6.45;3.50;;;;;;;19.13;71.60;100027.13;4990993;28;20070;-81
2022/05/31 08:04:27;;;;;;;5.90;3.17;;;;;;;19.38;72.21;100025.56;4986865;28;20080;-81
2022/05/31 08:06:57;;;;;;;4.18;3.35;;;;;;;19.43;70.30;100034.09;4990695;28;20050;-81
2022/05/31 08:09:23;;;;;;;3.70;2.88;;;;;;;19.45;69.71;100030.81;4984999;28;20034;-81
2022/05/31 08:11:49;;;;;;;5.28;3.08;;;;;;;19.08;70.48;100030.66;4990570;28;20484;-80
2022/05/31 08:14:14;;;;;;;4.20;3.05;;;;;;;19.02;70.58;100027.00;4990949;28;20039;-80
2022/05/31 08:16:40;;;;;;;4.82;3.28;;;;;;;18.96;71.14;100020.56;4988900;28;20586;-81
2022/05/31 08:19:06;;;;;;;3.83;3.20;;;;;;;18.92;72.03;100028.47;4987010;28;20077;-81
2022/05/31 08:21:32;;;;;;;5.18;3.20;;;;;;;19.18;72.83;100015.16;4978151;28;20038;-80
2022/05/31 08:24:06;;;;;;;4.15;3.30;;;;;;;18.83;72.12;100020.16;4964280;28;20030;-80
2022/05/31 08:26:33;;;;;;;4.00;3.00;;;;;;;18.98;72.45;100009.59;4984054;28;20121;-79
2022/05/31 08:28:58;;;;;;;6.00;3.10;;;;;;;19.04;70.95;100019.66;4990592;28;20034;-80
2022/05/31 08:31:26;;;;;;;4.80;3.10;;;;;;;19.30;71.30;100008.38;4990742;28;20080;-80
2022/05/31 08:33:52;;;;;;;4.82;3.63;;;;;;;18.53;71.26;100005.50;4987648;28;20050;-80
2022/05/31 08:36:18;;;;;;;5.05;2.80;;;;;;;18.60;72.50;100005.84;4963013;28;20045;-80
2022/05/31 08:38:43;;;;;;;4.05;2.85;;;;;;;18.55;73.71;100005.81;4986461;28;20554;-80
2022/05/31 08:41:20;;;;;;;3.92;2.75;;;;;;;18.89;72.16;100006.94;4990575;28;20049;-79
2022/05/31 08:43:53;;;;;;;4.82;3.05;;;;;;;19.49;69.30;100011.66;4979116;28;20038;-80
2022/05/31 08:46:40;;;;;;;4.40;3.40;;;;;;;19.26;68.04;100002.19;4990780;28;20621;-80
2022/05/31 08:49:22;;;;;;;4.50;2.92;;;;;;;19.05;69.68;99998.69;4982943;28;20537;-79
2022/05/31 08:52:03;;;;;;;4.13;3.03;;;;;;;19.11;70.89;99998.75;4982749;28;20038;-80
2022/05/31 08:57:36;;;;;;;4.78;2.90;;;;;;;19.94;66.55;100002.25;4990273;28;20051;-80
2022/05/31 09:00:17;;;;;;;4.03;3.03;;;;;;;19.64;67.22;100003.06;4987476;28;20050;-80
2022/05/31 09:02:47;;;;;;;3.70;2.92;;;;;;;19.76;68.42;99999.84;4990057;28;20042;-80
2022/05/31 09:05:25;;;;;;;4.68;2.53;;;;;;;20.07;66.75;100010.25;4990409;28;20042;-80
2022/05/31 09:07:57;;;;;;;3.80;2.80;;;;;;;20.52;66.55;100002.06;4972926;28;20503;-80
2022/05/31 09:10:26;;;;;;;3.78;2.75;;;;;;;20.34;64.64;100015.28;4990249;28;20038;-80
2022/05/31 09:12:52;;;;;;;3.30;2.80;;;;;;;20.28;64.49;100006.03;4990377;28;20420;-79
2022/05/31 09:15:34;;;;;;;4.45;2.78;;;;;;;19.75;66.51;100003.91;4972986;28;20101;-80
2022/05/31 09:18:23;;;;;;;3.13;2.55;;;;;;;19.95;66.77;100003.78;4972997;28;20050;-81
2022/05/31 09:20:57;;;;;;;4.28;2.80;;;;;;;20.25;65.99;100011.91;4956632;28;20054;-80
2022/05/31 09:23:28;;;;;;;4.05;2.90;;;;;;;20.02;66.35;100010.97;4972876;28;20068;-80
2022/05/31 09:26:10;;;;;;;5.20;2.70;;;;;;;20.14;67.08;100006.97;4989956;28;20046;-80
2022/05/31 09:28:40;;;;;;;4.03;2.65;;;;;;;20.19;65.00;100003.41;4972905;28;20049;-80
2022/05/31 09:31:15;;;;;;;4.75;2.88;;;;;;;20.10;65.70;100003.59;4973682;28;20038;-80
2022/05/31 09:33:49;;;;;;;3.83;2.47;;;;;;;20.46;65.56;99999.22;4976325;28;20514;-80
2022/05/31 09:36:33;;;;;;;5.93;2.88;;;;;;;20.73;64.81;99989.31;4993777;28;20046;-81
2022/05/31 09:39:07;;;;;;;3.13;2.20;;;;;;;21.22;63.59;99996.38;4976078;28;20423;-80
2022/05/31 09:41:48;;;;;;;4.93;2.60;;;;;;;20.98;63.01;99990.41;4993575;28;20046;-81
2022/05/31 09:44:26;;;;;;;3.50;2.67;;;;;;;20.65;63.14;99999.53;4992127;28;20046;-81
2022/05/31 09:47:10;;;;;;;3.00;2.55;;;;;;;20.32;65.27;99995.31;4976091;28;20050;-81
2022/05/31 09:49:45;;;;;;;3.13;2.50;;;;;;;20.11;65.53;99988.25;4987606;28;20046;-80
2022/05/31 09:52:15;;;;;;;5.00;2.58;;;;;;;20.10;66.26;100000.78;4975978;28;20048;-81
2022/05/31 09:58:29;;;;;;;6.25;2.15;;;;;;;20.73;65.37;99981.63;4964491;28;20042;-80
2022/05/31 10:01:29;;;;;;;4.20;2.85;;;;;;;20.80;65.77;99986.00;4993180;28;20196;-80
2022/05/31 10:04:12;;;;;;;3.40;2.63;;;;;;;20.50;64.72;99982.84;4971257;28;20174;-80
2022/05/31 10:06:59;;;;;;;4.70;2.70;;;;;;;20.89;64.07;99980.13;4993047;28;20109;-80
2022/05/31 10:09:36;;;;;;;3.95;2.40;;;;;;;21.42;64.09;99979.19;4974216;28;20133;-80
2022/05/31 10:12:15;;;;;;;4.70;2.50;;;;;;;21.78;62.72;99963.25;4992858;28;20053;-81
2022/05/31 10:14:51;;;;;;;3.63;2.90;;;;;;;21.65;62.77;99971.47;4985382;28;20042;-80
2022/05/31 10:17:42;;;;;;;4.80;2.35;;;;;;;21.30;62.35;99969.97;4975046;28;20042;-80
2022/05/31 10:20:25;;;;;;;3.00;2.30;;;;;;;21.38;62.67;99973.03;4975011;28;20050;-80
2022/05/31 10:23:11;;;;;;;5.40;2.63;;;;;;;21.08;62.72;99964.25;4975553;28;20046;-80
2022/05/31 10:25:57;;;;;;;3.30;2.50;;;;;;;21.54;63.26;99971.50;4991321;28;20049;-81
2022/05/31 10:28:53;;;;;;;3.78;2.58;;;;;;;21.86;63.01;99972.72;4985826;28;20121;-81
2022/05/31 10:31:48;;;;;;;4.07;2.30;;;;;;;21.91;60.67;99974.78;4972350;28;20046;-81
2022/05/31 10:34:25;;;;;;;3.00;2.10;;;;;;;22.08;60.83;99980.41;4992723;28;20038;-81
2022/05/31 10:36:54;;;;;;;3.47;2.50;;;;;;;22.09;60.85;99970.63;4992680;28;20047;-81
2022/05/31 10:39:25;;;;;;;3.58;2.50;;;;;;;21.91;62.01;99977.59;4974891;28;20065;-81
2022/05/31 10:41:54;;;;;;;6.65;2.72;;;;;;;21.12;61.98;99987.38;4975231;28;20104;-81
2022/05/31 10:44:32;;;;;;;5.28;2.78;;;;;;;21.17;64.18;99986.63;4974352;28;20157;-80
2022/05/31 10:47:02;;;;;;;4.32;2.58;;;;;;;21.33;63.21;99976.63;4975124;28;20046;-80
2022/05/31 10:49:28;;;;;;;5.00;2.45;;;;;;;21.17;63.70;99975.34;4974106;28;20046;-81
2022/05/31 10:52:17;;;;;;;3.53;2.60;;;;;;;21.02;63.63;99974.78;4988924;28;20054;-82
2022/05/31 10:54:58;;;;;;;5.18;2.70;;;;;;;21.28;63.25;99972.50;4964939;28;20085;-82
2022/05/31 10:57:44;;;;;;;3.40;2.38;;;;;;;21.47;62.82;99969.19;4985929;28;20109;-82
2022/05/31 11:00:20;;;;;;;3.92;2.63;;;;;;;21.36;62.47;99973.53;4985304;28;20121;-82
2022/05/31 11:03:01;;;;;;;3.15;2.33;;;;;;;20.90;64.00;99970.41;4990871;28;20053;-82
2022/05/31 11:05:57;;;;;;;4.40;2.55;;;;;;;20.99;64.19;99967.31;4985252;28;20124;-82
2022/05/31 11:11:37;;;;;;;4.70;2.33;;;;;;;21.50;63.15;99965.34;5007090;28;20528;-82
2022/05/31 11:14:39;;;;;;;2.50;2.10;;;;;;;21.86;63.02;99955.78;4998482;28;20038;-82
2022/05/31 11:17:16;;;;;;;4.35;2.30;;;;;;;22.19;59.73;99957.78;5005747;28;20442;-82
2022/05/31 11:19:53;;;;;;;2.90;2.20;;;;;;;22.36;58.48;99966.19;5010837;28;20062;-82
2022/05/31 11:22:33;;;;;;;3.63;2.42;;;;;;;22.61;58.31;99954.50;4993940;28;20696;-82
2022/05/31 11:25:21;;;;;;;3.47;2.08;;;;;;;22.47;55.57;99955.59;5007589;28;20400;-82
2022/05/31 11:28:13;;;;;;;4.28;2.28;;;;;;;22.03;57.80;99950.13;5010744;28;20065;-83
2022/05/31 11:31:08;;;;;;;4.13;2.28;;;;;;;22.35;57.86;99942.03;4980403;28;20610;-81
2022/05/31 11:33:51;;;;;;;3.08;2.35;;;;;;;21.99;57.21;99941.16;4981222;28;20069;-82
2022/05/31 11:36:21;;;;;;;4.57;2.42;;;;;;;22.25;57.78;99939.50;5007954;28;20073;-82
2022/05/31 11:39:05;;;;;;;4.85;2.20;;;;;;;22.66;57.32;99928.25;5006459;28;20050;-82
2022/05/31 11:41:42;;;;;;;5.03;2.28;;;;;;;22.50;55.33;99931.16;5004339;28;20129;-82
2022/05/31 11:44:45;;;;;;;3.72;2.22;;;;;;;22.45;55.74;99923.47;5007731;28;20065;-83
2022/05/31 11:47:25;;;;;;;3.15;2.20;;;;;;;22.83;56.12;99927.41;5006084;28;20104;-83
2022/05/31 11:50:09;;;;;;;3.42;2.65;;;;;;;22.65;56.44;99920.28;5005666;28;20045;-82
2022/05/31 11:52:48;;;;;;;2.40;2.13;;;;;;;22.91;57.14;99923.50;4984427;28;20072;-83
2022/05/31 11:55:26;;;;;;;5.68;2.40;;;;;;;23.19;56.12;99924.03;5001936;28;20046;-83
2022/05/31 11:58:08;;;;;;;3.25;2.45;;;;;;;22.71;57.61;99919.00;5003570;28;20046;-82
2022/05/31 12:00:46;;;;;;;3.53;2.47;;;;;;;22.70;57.31;99911.81;5003307;28;20050;-83
2022/05/31 12:03:17;;;;;;;3.97;2.40;;;;;;;22.70;57.33;99908.19;4997615;28;20038;-82
2022/05/31 12:05:47;;;;;;;3.65;2.60;;;;;;;22.46;58.03;99908.06;4991859;28;20088;-83
2022/05/31 12:08:17;;;;;;;4.65;3.00;;;;;;;22.33;59.50;99903.00;4992073;28;20046;-83
2022/05/31 12:10:53;;;;;;;5.50;2.42;;;;;;;22.33;59.55;99895.28;4991790;28;20557;-82
2022/05/31 12:13:19;;;;;;;4.32;2.45;;;;;;;22.47;60.49;99909.59;4993523;28;20065;-80
2022/05/31 12:15:46;;;;;;;3.42;2.80;;;;;;;22.48;59.74;99903.44;4990321;28;20037;-80
2022/05/31 12:18:24;;;;;;;5.07;2.60;;;;;;;22.83;59.39;99908.38;5006326;28;20454;-81
2022/05/31 12:21:16;;;;;;;3.20;2.65;;;;;;;22.81;62.95;99910.94;5005471;28;20580;-81
2022/05/31 12:24:04;;;;;;;5.82;2.60;;;;;;;22.74;61.65;99900.22;4970611;28;20503;-81